createdAt,value
2022-12-14T00:00:32.730Z,35.50
2022-12-14T00:01:32.385Z,34.80
2022-12-14T00:02:32.341Z,35.40
2022-12-14T00:03:33.442Z,36.10
2022-12-14T00:04:32.062Z,34.80
2022-12-14T00:05:32.083Z,35.50
2022-12-14T00:06:31.971Z,34.70
2022-12-14T00:07:32.019Z,34.80
2022-12-14T00:08:34.344Z,33.80
2022-12-14T00:09:33.326Z,35.10
2022-12-14T00:10:32.426Z,34.00
2022-12-14T00:11:31.830Z,34.40
2022-12-14T00:12:34.716Z,34.40
2022-12-14T00:13:32.010Z,33.90
2022-12-14T00:14:32.185Z,33.30
2022-12-14T00:15:32.210Z,33.10
2022-12-14T00:16:33.380Z,34.50
2022-12-14T00:17:31.862Z,33.40
2022-12-14T00:18:32.276Z,35.30
2022-12-14T00:19:31.861Z,33.80
2022-12-14T00:20:31.858Z,34.00
2022-12-14T00:21:31.676Z,34.10
2022-12-14T00:22:32.393Z,34.40
2022-12-14T00:23:37.184Z,34.10
2022-12-14T00:24:34.684Z,31.70
2022-12-14T00:25:33.358Z,33.20
2022-12-14T00:26:31.724Z,33.70
2022-12-14T00:27:31.615Z,33.30
2022-12-14T00:28:31.663Z,39.10
2022-12-14T00:29:31.819Z,38.00
2022-12-14T00:30:32.175Z,37.60
2022-12-14T00:31:32.029Z,37.00
2022-12-14T00:32:31.465Z,36.30
2022-12-14T00:33:31.573Z,34.40
2022-12-14T00:34:31.799Z,34.20
2022-12-14T00:35:31.668Z,33.20
2022-12-14T00:36:32.114Z,33.90
2022-12-14T00:37:31.713Z,33.20
2022-12-14T00:38:32.020Z,36.10
2022-12-14T00:39:31.516Z,33.90
2022-12-14T00:40:31.535Z,33.90
2022-12-14T00:41:31.612Z,33.60
2022-12-14T00:42:32.138Z,32.70
2022-12-14T00:43:31.311Z,31.60
2022-12-14T00:44:31.325Z,34.40
2022-12-14T00:45:31.265Z,34.20
2022-12-14T00:46:32.622Z,32.80
2022-12-14T00:47:34.904Z,32.00
2022-12-14T00:48:33.067Z,32.50
2022-12-14T00:49:31.983Z,31.30
2022-12-14T00:50:32.300Z,32.20
2022-12-14T00:51:31.552Z,32.40
2022-12-14T00:52:31.807Z,32.30
2022-12-14T00:53:31.399Z,32.90
2022-12-14T00:54:31.695Z,31.20
2022-12-14T00:55:31.319Z,29.60
2022-12-14T00:56:31.303Z,31.30
2022-12-14T00:57:31.492Z,32.00
2022-12-14T00:58:32.040Z,31.50
2022-12-14T00:59:31.442Z,30.40
2022-12-14T01:00:31.530Z,31.10
2022-12-14T01:01:32.001Z,32.20
2022-12-14T01:02:31.257Z,34.60
2022-12-14T01:03:31.855Z,31.90
2022-12-14T01:04:31.284Z,34.10
2022-12-14T01:05:31.640Z,33.00
2022-12-14T01:06:32.217Z,33.00
2022-12-14T01:07:31.377Z,32.30
2022-12-14T01:08:31.809Z,33.70
2022-12-14T01:09:31.923Z,31.80
2022-12-14T01:10:31.644Z,31.00
2022-12-14T01:11:31.343Z,33.10
2022-12-14T01:12:31.729Z,34.40
2022-12-14T01:13:31.032Z,31.80
2022-12-14T01:14:31.469Z,32.10
2022-12-14T01:15:32.050Z,34.50
2022-12-14T01:16:31.359Z,33.40
2022-12-14T01:19:20.739Z,34.10
2022-12-14T01:21:54.645Z,30.40
2022-12-14T01:22:58.364Z,30.50
2022-12-14T01:23:55.458Z,31.40
2022-12-14T01:30:08.918Z,31.40
2022-12-14T01:31:07.752Z,31.50
2022-12-14T01:32:08.716Z,30.60
2022-12-14T01:33:07.539Z,34.40
2022-12-14T01:34:07.372Z,34.10
2022-12-14T01:35:07.718Z,31.80
2022-12-14T01:36:07.831Z,32.30
2022-12-14T01:37:08.347Z,32.90
2022-12-14T01:38:08.387Z,35.10
2022-12-14T01:39:07.754Z,34.30
2022-12-14T01:40:07.756Z,33.40
2022-12-14T01:41:08.396Z,33.80
2022-12-14T01:42:07.493Z,32.80
2022-12-14T01:43:10.039Z,32.00
2022-12-14T01:44:08.220Z,32.20
2022-12-14T01:45:08.303Z,34.10
2022-12-14T01:46:07.321Z,32.80
2022-12-14T01:47:12.447Z,34.80
2022-12-14T01:49:59.657Z,34.90
2022-12-14T01:50:52.577Z,35.30
2022-12-14T01:51:51.375Z,33.80
2022-12-14T01:52:53.216Z,33.70
2022-12-14T01:53:52.811Z,35.10
2022-12-14T01:54:51.802Z,33.70
2022-12-14T01:55:52.642Z,33.50
2022-12-14T01:56:52.853Z,32.60
2022-12-14T01:57:51.397Z,32.90
2022-12-14T01:58:51.639Z,33.60
2022-12-14T01:59:52.349Z,34.90
2022-12-14T02:08:25.586Z,35.90
2022-12-14T02:17:36.487Z,33.80
2022-12-14T02:32:03.046Z,30.90
2022-12-14T02:32:12.055Z,31.40
2022-12-14T02:33:12.974Z,30.00
2022-12-14T02:34:12.854Z,32.20
2022-12-14T02:35:12.245Z,32.00
2022-12-14T02:36:12.045Z,32.20
2022-12-14T02:37:12.066Z,33.20
2022-12-14T02:38:11.987Z,33.20
2022-12-14T02:39:14.446Z,34.20
2022-12-14T02:40:20.606Z,32.50
2022-12-14T02:41:16.900Z,32.90
2022-12-14T02:44:16.611Z,31.70
2022-12-14T02:45:18.971Z,31.70
2022-12-14T02:46:16.684Z,31.70
2022-12-14T02:47:16.748Z,32.10
2022-12-14T02:48:17.447Z,32.70
2022-12-14T02:49:16.572Z,32.20
2022-12-14T02:50:16.670Z,32.20
2022-12-14T02:51:17.270Z,32.10
2022-12-14T02:52:17.197Z,31.90
2022-12-14T02:53:17.101Z,31.10
2022-12-14T02:54:18.008Z,30.80
2022-12-14T02:55:16.909Z,32.00
2022-12-14T02:56:17.518Z,32.10
2022-12-14T02:57:17.043Z,31.40
2022-12-14T02:58:18.042Z,31.70
2022-12-14T02:59:16.311Z,31.90
2022-12-14T03:04:31.808Z,32.60
2022-12-14T03:05:31.538Z,32.40
2022-12-14T03:06:31.227Z,32.20
2022-12-14T03:07:30.739Z,31.70
2022-12-14T03:08:30.831Z,33.50
2022-12-14T03:09:31.635Z,33.30
2022-12-14T03:10:30.851Z,31.90
2022-12-14T03:11:31.265Z,32.60
2022-12-14T03:12:31.481Z,34.00
2022-12-14T03:13:30.904Z,32.40
2022-12-14T03:14:32.281Z,32.20
2022-12-14T03:15:31.511Z,32.60
2022-12-14T03:16:31.171Z,32.70
2022-12-14T03:17:33.237Z,32.30
2022-12-14T03:22:23.361Z,33.80
2022-12-14T03:23:23.159Z,33.90
2022-12-14T03:24:22.542Z,32.00
2022-12-14T03:25:22.535Z,31.90
2022-12-14T03:26:22.783Z,31.60
2022-12-14T03:27:22.988Z,31.70
2022-12-14T03:28:22.900Z,31.10
2022-12-14T03:29:22.667Z,32.30
2022-12-14T03:30:51.230Z,32.40
2022-12-14T03:31:24.045Z,33.90
2022-12-14T03:32:22.710Z,32.80
2022-12-14T03:33:23.092Z,33.00
2022-12-14T03:34:22.611Z,32.40
2022-12-14T03:35:22.307Z,32.80
2022-12-14T03:36:22.914Z,32.20
2022-12-14T03:37:22.353Z,32.00
2022-12-14T03:38:22.424Z,32.30
2022-12-14T03:39:22.460Z,32.80
2022-12-14T03:40:22.352Z,32.30
2022-12-14T03:41:23.486Z,31.30
2022-12-14T03:42:22.651Z,33.40
2022-12-14T03:43:24.180Z,33.30
2022-12-14T03:44:22.384Z,32.60
2022-12-14T03:45:22.491Z,31.90
2022-12-14T03:46:22.206Z,32.60
2022-12-14T03:47:22.293Z,32.30
2022-12-14T03:48:22.311Z,31.20
2022-12-14T03:49:22.220Z,32.30
2022-12-14T03:50:22.233Z,32.50
2022-12-14T03:51:22.309Z,32.10
2022-12-14T03:52:22.412Z,32.50
2022-12-14T03:53:22.361Z,31.90
2022-12-14T03:54:22.565Z,31.30
2022-12-14T03:55:22.161Z,32.10
2022-12-14T03:56:22.330Z,31.50
2022-12-14T03:57:22.667Z,33.70
2022-12-14T03:58:22.652Z,31.50
2022-12-14T03:59:22.795Z,33.60
2022-12-14T04:00:22.259Z,32.10
2022-12-14T04:01:22.419Z,32.30
2022-12-14T04:02:23.184Z,32.30
2022-12-14T04:03:22.432Z,33.30
2022-12-14T04:04:22.504Z,32.80
2022-12-14T04:05:22.012Z,32.80
2022-12-14T04:06:22.221Z,31.30
2022-12-14T04:07:22.027Z,31.80
2022-12-14T04:08:22.146Z,33.60
2022-12-14T04:09:22.036Z,33.00
2022-12-14T04:10:22.037Z,31.90
2022-12-14T04:11:22.154Z,32.00
2022-12-14T04:12:22.610Z,33.20
2022-12-14T04:13:21.957Z,32.80
2022-12-14T04:14:22.059Z,32.00
2022-12-14T04:15:22.206Z,33.60
2022-12-14T04:16:22.026Z,34.70
2022-12-14T04:17:23.138Z,33.00
2022-12-14T04:18:21.995Z,33.30
2022-12-14T04:19:22.639Z,31.60
2022-12-14T04:20:22.123Z,32.90
2022-12-14T04:21:21.922Z,32.20
2022-12-14T04:22:22.437Z,32.40
2022-12-14T04:23:21.851Z,32.80
2022-12-14T04:24:21.922Z,31.80
2022-12-14T04:25:21.657Z,32.30
2022-12-14T04:26:21.876Z,31.40
2022-12-14T04:27:21.881Z,31.90
2022-12-14T04:28:22.085Z,30.90
2022-12-14T04:29:21.869Z,32.40
2022-12-14T04:30:22.586Z,32.50
2022-12-14T04:31:21.830Z,30.80
2022-12-14T04:32:21.782Z,29.90
2022-12-14T04:33:22.838Z,31.10
2022-12-14T04:34:22.816Z,31.10
2022-12-14T04:35:21.912Z,29.90
2022-12-14T04:36:21.806Z,29.30
2022-12-14T04:37:21.720Z,29.40
2022-12-14T04:38:21.849Z,29.00
2022-12-14T04:39:21.744Z,31.50
2022-12-14T04:40:21.630Z,29.30
2022-12-14T04:41:21.539Z,28.80
2022-12-14T04:42:21.671Z,29.80
2022-12-14T04:43:22.000Z,29.80
2022-12-14T04:44:21.491Z,28.60
2022-12-14T04:45:22.786Z,28.90
2022-12-14T04:46:21.942Z,28.30
2022-12-14T04:47:21.396Z,30.90
2022-12-14T04:48:21.399Z,29.00
2022-12-14T04:49:22.023Z,31.00
2022-12-14T04:50:21.517Z,32.60
2022-12-14T04:51:22.464Z,31.10
2022-12-14T04:52:21.552Z,29.60
2022-12-14T04:53:21.726Z,31.00
2022-12-14T04:54:21.638Z,29.70
2022-12-14T04:55:21.337Z,31.10
2022-12-14T04:56:21.366Z,30.80
2022-12-14T04:57:21.341Z,29.50
2022-12-14T04:58:21.474Z,31.20
2022-12-14T04:59:21.463Z,31.40
2022-12-14T05:00:21.390Z,30.60
2022-12-14T05:01:21.607Z,30.80
2022-12-14T05:02:21.574Z,31.60
2022-12-14T05:03:21.399Z,31.80
2022-12-14T05:04:21.427Z,32.50
2022-12-14T05:05:22.127Z,29.90
2022-12-14T05:06:21.614Z,30.80
2022-12-14T05:07:21.582Z,32.40
2022-12-14T05:08:21.158Z,31.00
2022-12-14T05:09:22.302Z,30.90
2022-12-14T05:10:22.050Z,31.00
2022-12-14T05:11:51.933Z,32.70
2022-12-14T05:12:22.181Z,32.60
2022-12-14T05:13:21.114Z,30.90
2022-12-14T05:14:21.208Z,30.80
2022-12-14T05:15:21.467Z,31.80
2022-12-14T05:16:22.225Z,30.80
2022-12-14T05:17:21.204Z,29.50
2022-12-14T05:18:21.082Z,30.40
2022-12-14T05:19:21.357Z,31.20
2022-12-14T05:20:21.188Z,30.60
2022-12-14T05:21:21.119Z,29.70
2022-12-14T05:22:21.223Z,32.10
2022-12-14T05:23:20.939Z,29.60
2022-12-14T05:24:21.273Z,30.60
2022-12-14T05:25:21.247Z,31.00
2022-12-14T05:26:21.124Z,30.50
2022-12-14T05:27:21.055Z,28.90
2022-12-14T05:28:20.955Z,29.90
2022-12-14T05:29:21.168Z,28.70
2022-12-14T05:30:21.140Z,28.00
2022-12-14T05:31:20.880Z,31.20
2022-12-14T05:32:21.314Z,30.20
2022-12-14T05:33:20.819Z,30.80
2022-12-14T05:34:21.134Z,31.50
2022-12-14T05:35:21.400Z,29.70
2022-12-14T05:36:21.870Z,30.00
2022-12-14T05:37:21.147Z,28.80
2022-12-14T05:38:20.945Z,30.20
2022-12-14T05:39:20.821Z,30.00
2022-12-14T05:40:21.872Z,30.10
2022-12-14T05:41:20.960Z,29.60
2022-12-14T05:42:21.062Z,29.70
2022-12-14T05:43:21.399Z,30.20
2022-12-14T05:44:20.777Z,30.00
2022-12-14T05:45:21.904Z,31.00
2022-12-14T05:46:20.829Z,30.30
2022-12-14T05:47:21.084Z,30.60
2022-12-14T05:48:21.420Z,31.40
2022-12-14T05:49:20.799Z,30.60
2022-12-14T05:50:21.031Z,31.20
2022-12-14T05:51:20.810Z,31.10
2022-12-14T05:52:20.710Z,29.90
2022-12-14T05:53:21.070Z,29.70
2022-12-14T05:54:20.737Z,29.80
2022-12-14T05:55:20.620Z,28.30
2022-12-14T05:56:20.663Z,29.10
2022-12-14T05:57:20.571Z,28.80
2022-12-14T05:58:21.110Z,29.30
2022-12-14T05:59:22.525Z,30.00
2022-12-14T06:00:21.712Z,29.70
2022-12-14T06:01:22.170Z,28.60
2022-12-14T06:02:20.967Z,30.40
2022-12-14T06:03:21.124Z,28.90
2022-12-14T06:04:21.029Z,29.60
2022-12-14T06:05:21.532Z,27.50
2022-12-14T06:06:21.460Z,30.00
2022-12-14T06:07:27.319Z,28.90
2022-12-14T06:08:21.845Z,29.40
2022-12-14T06:09:21.182Z,27.70
2022-12-14T06:10:20.960Z,30.30
2022-12-14T06:11:20.474Z,29.90
2022-12-14T06:12:21.378Z,30.00
2022-12-14T06:13:20.783Z,29.90
2022-12-14T06:14:20.678Z,27.80
2022-12-14T06:15:20.295Z,29.20
2022-12-14T06:16:20.593Z,28.50
2022-12-14T06:17:20.579Z,29.50
2022-12-14T06:18:20.508Z,30.10
2022-12-14T06:19:23.679Z,30.60
2022-12-14T06:20:20.101Z,30.90
2022-12-14T06:21:20.930Z,28.10
2022-12-14T06:22:20.331Z,29.60
2022-12-14T06:23:20.238Z,29.90
2022-12-14T06:24:20.862Z,27.10
2022-12-14T06:25:21.153Z,31.20
2022-12-14T06:26:20.567Z,30.10
2022-12-14T06:27:20.304Z,29.90
2022-12-14T06:28:20.257Z,30.40
2022-12-14T06:29:20.467Z,27.40
2022-12-14T06:30:20.384Z,27.20
2022-12-14T06:31:21.355Z,27.80
2022-12-14T06:32:20.247Z,29.80
2022-12-14T06:33:20.120Z,28.50
2022-12-14T06:34:24.833Z,28.00
2022-12-14T06:35:21.962Z,27.30
2022-12-14T06:36:20.241Z,27.80
2022-12-14T06:37:20.230Z,27.80
2022-12-14T06:38:20.117Z,27.00
2022-12-14T06:39:20.160Z,28.10
2022-12-14T06:40:20.050Z,28.00
2022-12-14T06:41:20.033Z,28.30
2022-12-14T06:42:20.323Z,28.40
2022-12-14T06:43:20.062Z,29.10
2022-12-14T06:44:20.574Z,28.40
2022-12-14T06:45:20.177Z,28.50
2022-12-14T06:46:20.795Z,28.30
2022-12-14T06:47:20.318Z,29.20
2022-12-14T06:48:20.192Z,28.80
2022-12-14T06:49:19.796Z,29.10
2022-12-14T06:50:20.015Z,29.20
2022-12-14T06:51:19.721Z,31.10
2022-12-14T06:52:26.425Z,31.30
2022-12-14T06:53:21.053Z,32.60
2022-12-14T06:54:20.137Z,32.10
2022-12-14T06:55:20.546Z,32.60
2022-12-14T06:56:20.982Z,32.50
2022-12-14T06:57:19.840Z,32.60
2022-12-14T06:58:19.965Z,30.10
2022-12-14T06:59:19.879Z,32.50
2022-12-14T07:00:20.269Z,32.90
2022-12-14T07:01:19.770Z,31.20
2022-12-14T07:02:20.198Z,30.90
2022-12-14T07:03:19.738Z,32.30
2022-12-14T07:04:19.721Z,30.50
2022-12-14T07:05:19.941Z,30.60
2022-12-14T07:06:20.036Z,29.80
2022-12-14T07:07:19.813Z,30.20
2022-12-14T07:08:19.830Z,29.70
2022-12-14T07:09:19.638Z,30.50
2022-12-14T07:10:19.765Z,27.70
2022-12-14T07:11:19.647Z,28.40
2022-12-14T07:12:19.941Z,28.30
2022-12-14T07:13:19.967Z,28.60
2022-12-14T07:14:19.774Z,27.60
2022-12-14T07:15:20.105Z,27.90
2022-12-14T07:16:19.593Z,28.10
2022-12-14T07:17:19.498Z,32.30
2022-12-14T07:18:20.182Z,30.70
2022-12-14T07:19:19.512Z,32.20
2022-12-14T07:20:19.625Z,31.90
2022-12-14T07:21:19.606Z,32.30
2022-12-14T07:22:19.544Z,32.00
2022-12-14T07:23:22.274Z,32.00
2022-12-14T07:24:20.570Z,30.80
2022-12-14T07:25:20.048Z,31.80
2022-12-14T07:26:19.669Z,32.20
2022-12-14T07:27:20.267Z,30.40
2022-12-14T07:28:19.474Z,31.90
2022-12-14T07:29:19.269Z,32.10
2022-12-14T07:30:19.355Z,30.60
2022-12-14T07:31:20.101Z,30.20
2022-12-14T07:32:19.600Z,30.30
2022-12-14T07:33:19.472Z,29.90
2022-12-14T07:34:19.221Z,29.50
2022-12-14T07:35:19.290Z,31.90
2022-12-14T07:36:19.634Z,30.10
2022-12-14T07:37:19.510Z,30.40
2022-12-14T07:38:19.242Z,29.50
2022-12-14T07:39:19.223Z,30.90
2022-12-14T07:40:19.344Z,31.60
2022-12-14T07:41:22.758Z,30.90
2022-12-14T07:42:19.263Z,30.20
2022-12-14T07:43:19.350Z,31.20
2022-12-14T07:44:19.273Z,29.30
2022-12-14T07:45:19.981Z,30.20
2022-12-14T07:46:19.296Z,30.00
2022-12-14T07:47:19.368Z,29.00
2022-12-14T07:48:19.198Z,29.30
2022-12-14T07:49:19.220Z,30.40
2022-12-14T07:50:19.133Z,28.50
2022-12-14T07:51:19.905Z,29.40
2022-12-14T07:52:19.078Z,30.40
2022-12-14T07:53:20.032Z,29.50
2022-12-14T07:54:19.233Z,29.80
2022-12-14T07:55:19.908Z,28.20
2022-12-14T07:56:19.574Z,29.40
2022-12-14T07:57:19.485Z,30.40
2022-12-14T07:58:19.084Z,28.20
2022-12-14T07:59:18.955Z,28.10
2022-12-14T08:00:19.058Z,28.80
2022-12-14T08:01:20.081Z,29.40
2022-12-14T08:02:20.660Z,26.80
2022-12-14T08:03:18.781Z,28.50
2022-12-14T08:04:20.222Z,30.60
2022-12-14T08:05:18.909Z,30.80
2022-12-14T08:06:18.951Z,31.40
2022-12-14T08:07:21.173Z,32.10
2022-12-14T08:08:24.064Z,32.90
2022-12-14T08:09:23.754Z,35.00
2022-12-14T08:10:19.800Z,34.50
2022-12-14T08:11:19.406Z,37.00
2022-12-14T08:12:20.400Z,38.30
2022-12-14T08:13:19.243Z,37.70
2022-12-14T08:14:19.141Z,36.30
2022-12-14T08:15:19.202Z,34.10
2022-12-14T08:18:13.975Z,36.80
2022-12-14T08:18:34.274Z,37.20
2022-12-14T08:19:35.311Z,36.60
2022-12-14T08:20:34.173Z,34.20
2022-12-14T08:21:35.182Z,33.90
2022-12-14T08:22:34.402Z,33.20
2022-12-14T08:24:05.303Z,33.50
2022-12-14T08:24:33.835Z,30.30
2022-12-14T08:25:35.197Z,31.60
2022-12-14T08:26:35.972Z,30.20
2022-12-14T08:27:33.941Z,31.50
2022-12-14T08:28:34.729Z,31.40
2022-12-14T08:29:34.639Z,29.40
2022-12-14T08:30:33.990Z,30.70
2022-12-14T08:31:34.676Z,31.30
2022-12-14T08:32:34.589Z,30.10
2022-12-14T08:33:34.212Z,30.40
2022-12-14T08:34:34.891Z,29.40
2022-12-14T08:35:35.698Z,29.50
2022-12-14T08:40:09.954Z,30.50
2022-12-14T08:41:03.497Z,30.80
2022-12-14T08:42:01.886Z,30.10
2022-12-14T08:43:02.603Z,30.90
2022-12-14T08:44:01.951Z,31.70
2022-12-14T08:45:02.289Z,31.80
2022-12-14T08:46:01.792Z,30.80
2022-12-14T08:47:02.077Z,30.70
2022-12-14T08:48:03.463Z,29.20
2022-12-14T08:49:02.043Z,29.80
2022-12-14T08:50:02.315Z,30.10
2022-12-14T08:51:01.396Z,29.70
2022-12-14T08:52:02.142Z,29.30
2022-12-14T08:53:01.438Z,29.40
2022-12-14T08:54:01.452Z,29.10
2022-12-14T08:55:02.594Z,29.40
2022-12-14T08:56:01.233Z,29.10
2022-12-14T08:57:01.554Z,29.80
2022-12-14T08:58:01.464Z,29.70
2022-12-14T08:59:01.401Z,29.30
2022-12-14T09:00:03.082Z,29.90
2022-12-14T09:01:01.932Z,29.10
2022-12-14T09:02:02.090Z,28.90
2022-12-14T09:03:07.426Z,30.60
2022-12-14T09:04:03.050Z,30.40
2022-12-14T09:05:01.206Z,28.20
2022-12-14T09:06:01.310Z,29.50
2022-12-14T09:07:01.731Z,30.00
2022-12-14T09:08:01.518Z,29.80
2022-12-14T09:09:01.957Z,27.40
2022-12-14T09:10:02.080Z,28.40
2022-12-14T09:11:01.535Z,28.40
2022-12-14T09:12:01.057Z,29.70
2022-12-14T09:13:00.777Z,29.50
2022-12-14T09:14:02.488Z,31.10
2022-12-14T09:15:01.470Z,29.30
2022-12-14T09:16:01.649Z,29.70
2022-12-14T09:17:00.974Z,30.00
2022-12-14T09:18:04.640Z,28.80
2022-12-14T09:19:00.911Z,27.90
2022-12-14T09:20:02.950Z,28.80
2022-12-14T09:21:00.908Z,28.90
2022-12-14T09:22:01.053Z,29.50
2022-12-14T09:23:00.895Z,29.60
2022-12-14T09:24:01.104Z,28.40
2022-12-14T09:25:00.943Z,29.90
2022-12-14T09:26:00.790Z,29.40
2022-12-14T09:27:01.048Z,29.70
2022-12-14T09:28:00.969Z,30.00
2022-12-14T09:29:01.086Z,27.50
2022-12-14T09:30:00.800Z,29.60
2022-12-14T09:31:00.750Z,30.30
2022-12-14T09:32:00.648Z,29.90
2022-12-14T09:33:00.396Z,28.90
2022-12-14T09:34:00.896Z,30.00
2022-12-14T09:35:00.675Z,30.30
2022-12-14T09:36:00.512Z,31.00
2022-12-14T09:37:00.592Z,28.50
2022-12-14T09:38:00.803Z,30.20
2022-12-14T09:39:02.751Z,29.70
2022-12-14T09:40:00.341Z,30.90
2022-12-14T09:41:00.824Z,30.40
2022-12-14T09:42:01.113Z,29.20
2022-12-14T09:43:00.364Z,30.20
2022-12-14T09:44:00.260Z,30.30
2022-12-14T09:45:00.377Z,29.20
2022-12-14T09:46:00.590Z,28.60
2022-12-14T09:47:00.378Z,28.90
2022-12-14T09:48:01.013Z,29.80
2022-12-14T09:49:00.272Z,28.60
2022-12-14T09:50:00.326Z,29.30
2022-12-14T09:51:00.320Z,29.70
2022-12-14T09:52:00.201Z,29.90
2022-12-14T09:53:00.317Z,28.80
2022-12-14T09:54:02.609Z,30.30
2022-12-14T09:55:00.125Z,28.40
2022-12-14T09:56:00.176Z,30.20
2022-12-14T09:57:00.247Z,28.90
2022-12-14T09:58:00.375Z,27.30
2022-12-14T09:59:00.359Z,29.40
2022-12-14T09:59:59.953Z,28.20
2022-12-14T10:01:00.200Z,26.80
2022-12-14T10:02:29.779Z,27.40
2022-12-14T10:03:06.344Z,26.90
2022-12-14T10:04:01.211Z,28.50
2022-12-14T10:05:00.148Z,27.80
2022-12-14T10:06:00.617Z,27.80
2022-12-14T10:07:00.243Z,28.30
2022-12-14T10:08:00.240Z,28.10
2022-12-14T10:08:59.903Z,26.40
2022-12-14T10:10:00.006Z,29.10
2022-12-14T10:11:00.146Z,28.60
2022-12-14T10:11:59.945Z,28.30
2022-12-14T10:12:59.970Z,28.60
2022-12-14T10:13:59.874Z,26.70
2022-12-14T10:15:00.077Z,26.70
2022-12-14T10:16:00.234Z,26.30
2022-12-14T10:16:59.955Z,27.60
2022-12-14T10:17:59.981Z,25.70
2022-12-14T10:19:01.699Z,27.10
2022-12-14T10:20:00.081Z,26.40
2022-12-14T10:20:59.707Z,28.10
2022-12-14T10:21:59.901Z,26.80
2022-12-14T10:22:59.902Z,27.40
2022-12-14T10:23:59.931Z,27.40
2022-12-14T10:24:59.749Z,28.30
2022-12-14T10:25:59.865Z,27.60
2022-12-14T10:26:59.727Z,26.80
2022-12-14T10:28:10.893Z,26.70
2022-12-14T10:29:01.740Z,26.20
2022-12-14T10:29:59.844Z,26.80
2022-12-14T10:30:59.791Z,27.30
2022-12-14T10:31:59.713Z,27.40
2022-12-14T10:32:59.669Z,28.00
2022-12-14T10:33:59.796Z,28.00
2022-12-14T10:34:59.700Z,28.90
2022-12-14T10:36:00.757Z,27.30
2022-12-14T10:36:59.509Z,27.00
2022-12-14T10:37:59.499Z,26.50
2022-12-14T10:38:59.635Z,28.50
2022-12-14T10:39:59.634Z,26.60
2022-12-14T10:40:59.516Z,27.10
2022-12-14T10:41:59.768Z,26.70
2022-12-14T10:42:59.657Z,28.30
2022-12-14T10:44:00.016Z,27.80
2022-12-14T10:45:23.446Z,26.60
2022-12-14T10:46:00.756Z,30.10
2022-12-14T10:46:59.676Z,26.20
2022-12-14T10:47:59.472Z,28.00
2022-12-14T10:48:59.605Z,27.70
2022-12-14T10:49:59.405Z,28.10
2022-12-14T10:50:59.605Z,27.00
2022-12-14T10:51:59.629Z,27.60
2022-12-14T10:52:59.308Z,26.00
2022-12-14T10:53:59.438Z,27.10
2022-12-14T10:54:59.305Z,27.50
2022-12-14T10:55:59.430Z,28.30
2022-12-14T10:56:59.332Z,26.80
2022-12-14T10:57:59.668Z,26.20
2022-12-14T10:58:59.434Z,26.60
2022-12-14T11:00:09.692Z,27.20
2022-12-14T11:01:00.349Z,27.20
2022-12-14T11:01:59.482Z,26.60
2022-12-14T11:02:59.451Z,26.40
2022-12-14T11:03:59.413Z,27.50
2022-12-14T11:04:59.241Z,28.70
2022-12-14T11:05:59.290Z,28.00
2022-12-14T11:06:59.215Z,26.70
2022-12-14T11:07:59.200Z,25.90
2022-12-14T11:08:59.426Z,27.40
2022-12-14T11:09:59.413Z,29.80
2022-12-14T11:10:59.020Z,29.70
2022-12-14T11:11:59.298Z,28.00
2022-12-14T11:12:59.138Z,29.00
2022-12-14T11:13:59.047Z,28.70
2022-12-14T11:14:59.291Z,29.60
2022-12-14T11:15:58.970Z,27.40
2022-12-14T11:16:59.249Z,27.20
2022-12-14T11:17:59.261Z,27.30
2022-12-14T11:18:59.192Z,27.90
2022-12-14T11:19:58.980Z,26.50
2022-12-14T11:20:59.530Z,26.50
2022-12-14T11:21:58.991Z,27.60
2022-12-14T11:23:00.046Z,28.00
2022-12-14T11:24:13.248Z,29.20
2022-12-14T11:24:58.946Z,28.30
2022-12-14T11:25:58.849Z,31.10
2022-12-14T11:26:58.835Z,29.90
2022-12-14T11:27:58.868Z,28.80
2022-12-14T11:28:58.858Z,27.20
2022-12-14T11:29:58.884Z,28.20
2022-12-14T11:30:58.809Z,28.10
2022-12-14T11:31:58.877Z,30.00
2022-12-14T11:32:58.992Z,30.50
2022-12-14T11:33:58.994Z,29.50
2022-12-14T11:34:58.776Z,29.30
2022-12-14T11:35:58.909Z,28.50
2022-12-14T11:36:58.918Z,29.70
2022-12-14T11:37:59.117Z,31.30
2022-12-14T11:38:58.609Z,31.90
2022-12-14T11:39:58.731Z,31.00
2022-12-14T11:40:58.784Z,32.30
2022-12-14T11:41:58.544Z,29.00
2022-12-14T11:42:58.828Z,28.80
2022-12-14T11:43:58.871Z,29.20
2022-12-14T11:44:58.681Z,30.40
2022-12-14T11:45:59.400Z,28.40
2022-12-14T11:46:58.596Z,27.80
2022-12-14T11:47:58.636Z,28.00
2022-12-14T11:48:59.702Z,29.00
2022-12-14T11:49:58.706Z,26.50
2022-12-14T11:50:58.494Z,28.50
2022-12-14T11:51:58.603Z,29.20
2022-12-14T11:52:58.487Z,29.80
2022-12-14T11:53:58.615Z,30.50
2022-12-14T11:54:58.527Z,28.50
2022-12-14T11:55:58.563Z,29.30
2022-12-14T11:56:58.457Z,28.00
2022-12-14T11:57:58.464Z,28.90
2022-12-14T11:58:58.433Z,27.90
2022-12-14T11:59:58.554Z,26.40
2022-12-14T12:00:58.512Z,27.50
2022-12-14T12:01:58.443Z,27.80
2022-12-14T12:02:58.444Z,30.20
2022-12-14T12:03:58.609Z,28.70
2022-12-14T12:04:58.592Z,31.60
2022-12-14T12:05:58.494Z,31.80
2022-12-14T12:07:04.264Z,31.50
2022-12-14T12:07:59.341Z,29.70
2022-12-14T12:08:58.326Z,27.90
2022-12-14T12:09:58.207Z,27.10
2022-12-14T12:11:01.905Z,28.20
2022-12-14T12:11:58.243Z,29.40
2022-12-14T12:12:58.133Z,29.50
2022-12-14T12:13:58.147Z,27.50
2022-12-14T12:14:58.153Z,27.00
2022-12-14T12:15:58.201Z,28.50
2022-12-14T12:16:58.173Z,29.30
2022-12-14T12:17:58.289Z,31.20
2022-12-14T12:18:58.173Z,28.30
2022-12-14T12:19:58.173Z,27.90
2022-12-14T12:20:58.198Z,29.30
2022-12-14T12:21:58.317Z,29.70
2022-12-14T12:22:58.119Z,29.00
2022-12-14T12:23:58.112Z,29.10
2022-12-14T12:25:24.300Z,30.20
2022-12-14T12:25:58.943Z,32.50
2022-12-14T12:26:58.122Z,32.60
2022-12-14T12:27:58.038Z,31.40
2022-12-14T12:28:57.953Z,30.90
2022-12-14T12:29:58.278Z,30.60
2022-12-14T12:30:58.011Z,27.20
2022-12-14T12:31:58.057Z,29.30
2022-12-14T12:32:57.942Z,28.60
2022-12-14T12:33:57.994Z,26.30
2022-12-14T12:35:01.401Z,27.30
2022-12-14T12:35:59.414Z,28.40
2022-12-14T12:37:25.459Z,33.00
2022-12-14T12:37:58.949Z,30.10
2022-12-14T12:38:57.993Z,27.30
2022-12-14T12:39:57.932Z,28.70
2022-12-14T12:40:58.026Z,27.60
2022-12-14T12:42:02.071Z,26.50
2022-12-14T12:42:58.853Z,27.00
2022-12-14T12:43:57.888Z,27.70
2022-12-14T12:44:57.774Z,26.90
2022-12-14T12:45:57.922Z,26.50
2022-12-14T12:47:23.939Z,28.20
2022-12-14T12:47:59.208Z,27.70
2022-12-14T12:48:58.097Z,30.80
2022-12-14T12:49:58.085Z,28.60
2022-12-14T12:50:57.635Z,29.00
2022-12-14T12:51:57.729Z,28.40
2022-12-14T12:53:02.648Z,29.80
2022-12-14T12:53:58.738Z,25.90
2022-12-14T12:54:57.813Z,29.90
2022-12-14T12:55:57.820Z,29.30
2022-12-14T12:56:58.022Z,25.90
2022-12-14T12:57:57.955Z,27.10
2022-12-14T12:58:57.643Z,26.30
2022-12-14T12:59:57.761Z,24.60
2022-12-14T13:00:57.663Z,26.30
2022-12-14T13:01:57.791Z,24.50
2022-12-14T13:02:57.801Z,20.80
2022-12-14T13:03:57.690Z,23.20
2022-12-14T13:04:57.960Z,25.00
2022-12-14T13:05:57.611Z,24.70
2022-12-14T13:06:57.600Z,25.30
2022-12-14T13:07:58.168Z,24.40
2022-12-14T13:08:57.635Z,25.50
2022-12-14T13:10:05.804Z,22.80
2022-12-14T13:11:25.094Z,23.40
2022-12-14T13:11:58.663Z,23.90
2022-12-14T13:12:57.863Z,23.80
2022-12-14T13:13:57.937Z,25.10
2022-12-14T13:14:57.684Z,24.00
2022-12-14T13:15:57.695Z,24.10
2022-12-14T13:16:58.631Z,27.30
2022-12-14T13:17:57.774Z,26.20
2022-12-14T13:19:08.971Z,23.80
2022-12-14T13:19:58.801Z,23.30
2022-12-14T13:20:57.787Z,24.40
2022-12-14T13:22:03.305Z,24.10
2022-12-14T13:23:05.682Z,25.50
2022-12-14T13:23:58.641Z,25.30
2022-12-14T13:24:59.762Z,25.90
2022-12-14T13:25:57.514Z,27.80
2022-12-14T13:26:59.227Z,26.90
2022-12-14T13:27:57.539Z,25.30
2022-12-14T13:28:57.784Z,26.70
2022-12-14T13:29:57.541Z,25.70
2022-12-14T13:30:57.439Z,26.40
2022-12-14T13:31:57.393Z,25.70
2022-12-14T13:32:57.553Z,25.60
2022-12-14T13:33:57.293Z,26.90
2022-12-14T13:34:57.310Z,23.80
2022-12-14T13:35:57.395Z,26.10
2022-12-14T13:36:57.298Z,22.30
2022-12-14T13:37:57.307Z,23.60
2022-12-14T13:38:57.429Z,23.40
2022-12-14T13:39:57.346Z,22.90
2022-12-14T13:40:57.239Z,23.40
2022-12-14T13:41:57.444Z,22.10
2022-12-14T13:42:57.176Z,23.90
2022-12-14T13:43:58.163Z,22.50
2022-12-14T13:44:57.477Z,23.10
2022-12-14T13:45:57.178Z,22.50